Smyrna, TN (MQY)

CessnaPCRedbird FMX


Wings of Eagles Aviation started in Smyrna (MQY) in 1998 as a small flight school. The Smyrna Airport is the third largest airport in the state of Tennessee and the busiest general aviation airport. With its longest runway being just over 8,000 feet and having its own air traffic control tower, this is the best possible training environment for all pilots. Once you learn how to fly here, you will be confident no matter where your aviation adventures take you.

Address:
278 Doug Warpoole Rd. Suite 104
Smyrna, TN 37167

Phone: (615) 355-0033

Business Hours:
Monday-Sunday 7a-10p

Wings MQY

NOAA Weather

Smyrna, TN

Last Updated on Oct 23 2017, 11:56 pm CDT

Current Conditions: Fair

NOAA Icon

Temp: 49°F

Wind: South at 6mph

Humidity: 90%

Windchill: 46°F

Your 5-Day Forecast at a Glance

Available data for KMQY from the past 2 hours
SMYRNA, TN
Metar
KMQY 240456Z AUTO 16006KT 10SM CLR 09/08 A2988 RMK AO2 SLP046 T00940078

04:56 UTC

Wind: 160° 6kt

Visibility: 10 SM

Sky:

Temp: 9 deg C / 48.2 deg F

Dewpoint: 8 deg C / 46.4 deg F

Pressure: 29.88 inHg

TAF
KMQY 232320Z 2400/2424 23007KT P6SM BKN040 FM240500 21008KT P6SM SCT250 FM240800 25008KT P6SM SCT250 FM241400 28012G18KT P6SM FEW250